Time;durP1;ratioP1;P1;durP2;ratioP2;P2;SDS_P1;SDS_P2;PMS_P1;PMS_P2;Temp;Humidity;BMP_temperature;BMP_pressure;BME280_temperature;BME280_humidity;BME280_pressure;Samples;Min_cycle;Max_cycle;Signal;HPM_P1;HPM_P2
2022/08/25 00:00:19;;;;;;;7.70;4.03;;;;;;;;;;5134232;27;20296;-49
2022/08/25 00:02:46;;;;;;;4.67;3.70;;;;;;;;;;5133929;27;20198;-49
2022/08/25 00:05:12;;;;;;;4.90;3.90;;;;;;;;;;5134339;27;20678;-49
2022/08/25 00:07:38;;;;;;;5.50;4.10;;;;;;;;;;5134327;27;20225;-49
2022/08/25 00:10:04;;;;;;;7.10;4.03;;;;;;;;;;5134163;27;20201;-49
2022/08/25 00:12:30;;;;;;;4.10;3.57;;;;;;;;;;5134087;27;20585;-49
2022/08/25 00:14:56;;;;;;;5.00;3.60;;;;;;;;;;5133989;27;20197;-49
2022/08/25 00:17:23;;;;;;;7.33;4.10;;;;;;;;;;5134163;27;20254;-49
2022/08/25 00:19:50;;;;;;;5.43;3.90;;;;;;;;;;5133613;27;20244;-50
2022/08/25 00:22:16;;;;;;;6.07;3.80;;;;;;;;;;5134251;27;20228;-50
2022/08/25 00:24:42;;;;;;;4.73;4.03;;;;;;;;;;5133723;27;20667;-49
2022/08/25 00:27:11;;;;;;;5.97;4.30;;;;;;;;;;5133690;27;20204;-50
2022/08/25 00:29:37;;;;;;;5.10;3.70;;;;;;;;;;5133685;27;20237;-50
2022/08/25 00:32:04;;;;;;;5.03;4.13;;;;;;;;;;5133770;27;20197;-50
2022/08/25 00:34:33;;;;;;;5.80;4.60;;;;;;;;;;5133796;27;20636;-50
2022/08/25 00:37:00;;;;;;;5.27;4.30;;;;;;;;;;5133683;27;20197;-49
2022/08/25 00:39:27;;;;;;;4.20;3.80;;;;;;;;;;5133733;27;20205;-49
2022/08/25 00:41:55;;;;;;;7.37;4.13;;;;;;;;;;5133567;27;20202;-49
2022/08/25 00:44:23;;;;;;;7.67;4.30;;;;;;;;;;5133344;27;20250;-49
2022/08/25 00:46:50;;;;;;;7.33;4.10;;;;;;;;;;5133175;27;20189;-49
2022/08/25 00:49:18;;;;;;;4.43;3.83;;;;;;;;;;5133654;27;20288;-50
2022/08/25 00:51:47;;;;;;;6.30;4.40;;;;;;;;;;5133480;27;20191;-50
2022/08/25 00:54:17;;;;;;;5.57;4.57;;;;;;;;;;5133495;27;20582;-50
2022/08/25 00:56:44;;;;;;;8.03;4.60;;;;;;;;;;5133491;27;20602;-49
2022/08/25 00:59:10;;;;;;;5.57;4.03;;;;;;;;;;5133454;27;20197;-49
2022/08/25 01:01:36;;;;;;;5.23;3.87;;;;;;;;;;5133332;27;20675;-49
2022/08/25 01:04:02;;;;;;;7.83;4.77;;;;;;;;;;5133234;27;20221;-49
2022/08/25 01:06:30;;;;;;;10.40;4.33;;;;;;;;;;5133149;27;20197;-50
2022/08/25 01:08:57;;;;;;;5.43;4.10;;;;;;;;;;5133229;27;20193;-49
2022/08/25 01:11:26;;;;;;;8.20;4.63;;;;;;;;;;5133147;27;20182;-49
2022/08/25 01:13:54;;;;;;;6.70;4.17;;;;;;;;;;5132972;27;20225;-49
2022/08/25 01:16:20;;;;;;;5.47;4.50;;;;;;;;;;5132882;27;20280;-49
2022/08/25 01:18:47;;;;;;;6.37;4.50;;;;;;;;;;5131950;27;20205;-49
2022/08/25 01:21:16;;;;;;;7.20;4.50;;;;;;;;;;5132181;27;20647;-49
2022/08/25 01:23:43;;;;;;;6.60;4.77;;;;;;;;;;5132885;27;20274;-49
2022/08/25 01:26:10;;;;;;;5.80;4.37;;;;;;;;;;5132938;27;20196;-48
2022/08/25 01:28:36;;;;;;;5.43;4.93;;;;;;;;;;5132939;27;20254;-49
2022/08/25 01:31:03;;;;;;;6.73;4.87;;;;;;;;;;5132693;27;20255;-50
2022/08/25 01:33:29;;;;;;;6.70;4.93;;;;;;;;;;5133033;27;20245;-50
2022/08/25 01:35:55;;;;;;;5.53;4.77;;;;;;;;;;5132798;27;20233;-49
2022/08/25 01:38:23;;;;;;;5.20;4.70;;;;;;;;;;5132997;27;20224;-49
2022/08/25 01:40:49;;;;;;;7.10;4.20;;;;;;;;;;5132649;27;20207;-48
2022/08/25 01:43:17;;;;;;;5.03;4.53;;;;;;;;;;5132872;27;20189;-49
2022/08/25 01:45:44;;;;;;;5.97;4.70;;;;;;;;;;5132545;27;20193;-49
2022/08/25 01:48:11;;;;;;;5.43;4.60;;;;;;;;;;5132536;27;20698;-50
2022/08/25 01:50:38;;;;;;;5.50;4.80;;;;;;;;;;5132463;27;20193;-49
2022/08/25 01:53:06;;;;;;;6.13;4.73;;;;;;;;;;5132470;27;20229;-49
2022/08/25 01:55:50;;;;;;;6.70;4.90;;;;;;;;;;5132699;27;20679;-49
2022/08/25 01:58:16;;;;;;;9.87;4.83;;;;;;;;;;5132693;27;20218;-49
2022/08/25 02:00:44;;;;;;;5.47;4.70;;;;;;;;;;5132808;27;20204;-49
2022/08/25 02:03:10;;;;;;;5.20;4.70;;;;;;;;;;5132439;27;20200;-49
2022/08/25 02:05:36;;;;;;;5.30;4.80;;;;;;;;;;5131890;27;20228;-49
2022/08/25 02:08:02;;;;;;;5.20;4.70;;;;;;;;;;5132361;27;20266;-49
2022/08/25 02:10:28;;;;;;;5.33;4.60;;;;;;;;;;5132630;27;20221;-48
2022/08/25 02:12:55;;;;;;;7.30;5.33;;;;;;;;;;5132083;27;20725;-48
2022/08/25 02:15:21;;;;;;;5.07;4.57;;;;;;;;;;5132650;27;20197;-49
2022/08/25 02:17:47;;;;;;;5.93;4.93;;;;;;;;;;5132476;27;20194;-49
2022/08/25 02:20:13;;;;;;;5.83;5.10;;;;;;;;;;5132322;27;20197;-50
2022/08/25 02:22:39;;;;;;;8.47;4.63;;;;;;;;;;5132411;27;20200;-49
2022/08/25 02:25:06;;;;;;;6.13;4.83;;;;;;;;;;5132397;27;20198;-49
2022/08/25 02:27:32;;;;;;;6.63;5.57;;;;;;;;;;5132418;27;20193;-49
2022/08/25 02:29:59;;;;;;;7.63;5.53;;;;;;;;;;5133510;27;20324;-49
2022/08/25 02:32:26;;;;;;;6.00;5.40;;;;;;;;;;5135817;27;20617;-50
2022/08/25 02:34:52;;;;;;;7.10;4.97;;;;;;;;;;5135300;27;20325;-49
2022/08/25 02:37:19;;;;;;;6.43;5.13;;;;;;;;;;5134880;27;20289;-49
2022/08/25 02:39:45;;;;;;;5.73;4.90;;;;;;;;;;5136174;27;20276;-49
2022/08/25 02:42:11;;;;;;;5.83;5.03;;;;;;;;;;5135904;27;20636;-49
2022/08/25 02:44:37;;;;;;;6.43;5.73;;;;;;;;;;5136159;27;20193;-49
2022/08/25 02:47:05;;;;;;;7.90;5.57;;;;;;;;;;5135888;27;20280;-50
2022/08/25 02:49:31;;;;;;;6.13;5.53;;;;;;;;;;5135820;27;20204;-49
2022/08/25 02:51:59;;;;;;;6.60;6.00;;;;;;;;;;5135763;27;20204;-50
2022/08/25 02:54:25;;;;;;;7.00;5.57;;;;;;;;;;5135874;27;20300;-50
2022/08/25 02:56:51;;;;;;;6.40;5.80;;;;;;;;;;5135345;27;20198;-50
2022/08/25 02:59:18;;;;;;;6.90;6.20;;;;;;;;;;5135907;27;20190;-50
2022/08/25 03:01:44;;;;;;;8.80;6.23;;;;;;;;;;5135697;27;20197;-50
2022/08/25 03:04:12;;;;;;;8.23;6.40;;;;;;;;;;5135721;27;20193;-50
2022/08/25 03:06:38;;;;;;;8.30;6.10;;;;;;;;;;5135482;27;20221;-49
2022/08/25 03:09:04;;;;;;;6.77;6.17;;;;;;;;;;5135600;27;20197;-50
2022/08/25 03:11:30;;;;;;;8.30;6.33;;;;;;;;;;5135534;27;20243;-49
2022/08/25 03:13:56;;;;;;;11.13;6.30;;;;;;;;;;5132372;27;20244;-50
2022/08/25 03:16:23;;;;;;;7.83;6.40;;;;;;;;;;5134617;27;20197;-50
2022/08/25 03:18:49;;;;;;;7.37;6.53;;;;;;;;;;5135470;27;20224;-50
2022/08/25 03:21:17;;;;;;;6.93;6.23;;;;;;;;;;5134508;27;20220;-50
2022/08/25 03:23:43;;;;;;;7.37;6.03;;;;;;;;;;5134975;27;20190;-50
2022/08/25 03:28:54;;;;;;;7.57;6.77;;;;;;;;;;5135139;27;20241;-50
2022/08/25 03:31:20;;;;;;;7.87;7.07;;;;;;;;;;5134899;27;20236;-50
2022/08/25 03:33:46;;;;;;;9.13;6.53;;;;;;;;;;5134879;27;20225;-49
2022/08/25 03:36:13;;;;;;;7.50;6.70;;;;;;;;;;5135202;27;20713;-50
2022/08/25 03:38:40;;;;;;;8.70;6.90;;;;;;;;;;5134951;27;20201;-49
2022/08/25 03:41:14;;;;;;;7.63;6.20;;;;;;;;;;5134436;27;20213;-49
2022/08/25 03:43:40;;;;;;;9.07;6.87;;;;;;;;;;5134886;27;20224;-50
2022/08/25 03:46:06;;;;;;;7.93;7.13;;;;;;;;;;5134572;27;20203;-48
2022/08/25 03:48:32;;;;;;;7.63;6.83;;;;;;;;;;5134648;27;20205;-49
2022/08/25 03:50:58;;;;;;;8.27;7.33;;;;;;;;;;5134430;27;20222;-49
2022/08/25 03:53:24;;;;;;;9.93;6.83;;;;;;;;;;5134370;27;20263;-50
2022/08/25 03:55:51;;;;;;;7.80;7.00;;;;;;;;;;5134608;27;20193;-49
2022/08/25 03:58:17;;;;;;;9.63;7.87;;;;;;;;;;5134364;27;20200;-50
2022/08/25 04:00:43;;;;;;;8.37;7.57;;;;;;;;;;5134564;27;20204;-52
2022/08/25 04:03:10;;;;;;;7.67;6.90;;;;;;;;;;5134498;27;20186;-49
2022/08/25 04:05:36;;;;;;;12.37;8.20;;;;;;;;;;5134295;27;20189;-48
2022/08/25 04:08:02;;;;;;;9.50;8.03;;;;;;;;;;5133369;27;20346;-49
2022/08/25 04:10:28;;;;;;;12.43;8.93;;;;;;;;;;5133092;27;20250;-49
2022/08/25 04:12:55;;;;;;;9.83;7.87;;;;;;;;;;5133436;27;20217;-49
2022/08/25 04:15:21;;;;;;;10.73;7.47;;;;;;;;;;5134115;27;20213;-50
2022/08/25 04:17:47;;;;;;;9.40;7.93;;;;;;;;;;5134025;27;20193;-50
2022/08/25 04:20:13;;;;;;;8.93;8.03;;;;;;;;;;5134051;27;20291;-50
2022/08/25 04:22:39;;;;;;;9.10;8.20;;;;;;;;;;5133976;27;20203;-49
2022/08/25 04:25:06;;;;;;;15.03;7.40;;;;;;;;;;5132994;27;20258;-49
2022/08/25 04:27:32;;;;;;;9.07;8.27;;;;;;;;;;5134101;27;20196;-50
2022/08/25 04:30:00;;;;;;;10.53;7.77;;;;;;;;;;5133255;27;20260;-50
2022/08/25 04:32:26;;;;;;;9.77;8.00;;;;;;;;;;5133653;27;20287;-50
2022/08/25 04:34:52;;;;;;;10.07;8.07;;;;;;;;;;5133745;27;20231;-52
2022/08/25 04:37:18;;;;;;;8.87;7.97;;;;;;;;;;5133673;27;20222;-50
2022/08/25 04:39:44;;;;;;;11.30;8.57;;;;;;;;;;5133665;27;20193;-56
2022/08/25 04:42:10;;;;;;;8.57;7.77;;;;;;;;;;5133469;27;20201;-60
2022/08/25 04:44:36;;;;;;;9.60;7.73;;;;;;;;;;5133373;27;20228;-60
2022/08/25 04:47:04;;;;;;;8.50;7.63;;;;;;;;;;5132912;27;20200;-60
2022/08/25 04:49:30;;;;;;;7.07;6.43;;;;;;;;;;5133252;27;20194;-60
2022/08/25 04:51:56;;;;;;;10.37;8.37;;;;;;;;;;5132226;27;20193;-60
2022/08/25 04:54:22;;;;;;;8.80;7.90;;;;;;;;;;5133425;27;20225;-59
2022/08/25 04:56:49;;;;;;;11.07;7.77;;;;;;;;;;5133286;27;20211;-60
2022/08/25 04:59:16;;;;;;;11.30;8.37;;;;;;;;;;5133139;27;20305;-60
2022/08/25 05:01:45;;;;;;;9.20;8.30;;;;;;;;;;5133262;27;20257;-60
2022/08/25 05:04:13;;;;;;;10.80;8.50;;;;;;;;;;5133436;27;20198;-59
2022/08/25 05:06:39;;;;;;;10.07;9.07;;;;;;;;;;5132834;27;20300;-60
2022/08/25 05:09:05;;;;;;;11.60;9.00;;;;;;;;;;5132905;27;20261;-59
2022/08/25 05:11:31;;;;;;;9.07;8.17;;;;;;;;;;5132772;27;20569;-60
2022/08/25 05:13:59;;;;;;;9.20;8.27;;;;;;;;;;5132176;27;20315;-59
2022/08/25 05:16:26;;;;;;;10.13;8.20;;;;;;;;;;5132673;27;20257;-60
2022/08/25 05:18:52;;;;;;;11.43;8.73;;;;;;;;;;5132396;27;20696;-59
2022/08/25 05:21:22;;;;;;;12.57;9.73;;;;;;;;;;5132615;27;20201;-60
2022/08/25 05:23:48;;;;;;;10.43;8.93;;;;;;;;;;5132361;27;20203;-57
2022/08/25 05:26:15;;;;;;;10.27;8.87;;;;;;;;;;5132732;27;20205;-63
2022/08/25 05:31:39;;;;;;;6.90;6.30;;;;;;;;;;5089384;27;21091;-77
2022/08/25 05:34:06;;;;;;;6.97;6.33;;;;;;;;;;5089392;28;20210;-74
2022/08/25 05:36:32;;;;;;;7.23;5.70;;;;;;;;;;5088854;28;20206;-85
2022/08/25 05:38:59;;;;;;;6.10;5.60;;;;;;;;;;5088932;28;20206;-86
2022/08/25 05:41:26;;;;;;;5.90;5.40;;;;;;;;;;5089339;28;20348;-77
2022/08/25 05:43:52;;;;;;;6.20;5.60;;;;;;;;;;5089000;28;20201;-76
2022/08/25 05:46:19;;;;;;;6.27;5.67;;;;;;;;;;5088589;28;20211;-75
2022/08/25 05:48:47;;;;;;;6.10;5.57;;;;;;;;;;5088432;28;20201;-76
2022/08/25 05:51:14;;;;;;;6.50;5.90;;;;;;;;;;5088811;28;20226;-76
2022/08/25 05:53:41;;;;;;;9.07;6.77;;;;;;;;;;5088693;28;20221;-76
2022/08/25 05:56:07;;;;;;;7.33;6.50;;;;;;;;;;5088663;28;20221;-75
2022/08/25 05:58:33;;;;;;;9.07;6.90;;;;;;;;;;5088873;28;20662;-75
2022/08/25 06:03:44;;;;;;;7.23;6.63;;;;;;;;;;5088504;28;20194;-75
2022/08/25 06:06:12;;;;;;;7.53;6.83;;;;;;;;;;5088574;28;20195;-75
2022/08/25 06:08:38;;;;;;;7.80;7.10;;;;;;;;;;5068499;28;20294;-75
2022/08/25 06:11:06;;;;;;;8.43;7.73;;;;;;;;;;5068315;28;20588;-75
2022/08/25 06:13:32;;;;;;;8.60;7.77;;;;;;;;;;5068068;28;20230;-75
2022/08/25 06:15:58;;;;;;;7.73;7.03;;;;;;;;;;5068144;28;20203;-75
2022/08/25 06:18:24;;;;;;;9.07;8.17;;;;;;;;;;5068001;28;20220;-75
2022/08/25 06:20:50;;;;;;;9.77;8.00;;;;;;;;;;5068000;28;20738;-75
2022/08/25 06:23:21;;;;;;;8.57;7.77;;;;;;;;;;5068129;28;20296;-76
2022/08/25 06:25:48;;;;;;;8.33;7.63;;;;;;;;;;5068217;28;20198;-75
2022/08/25 06:28:14;;;;;;;8.73;7.90;;;;;;;;;;5067887;28;20284;-75
2022/08/25 06:30:40;;;;;;;9.10;7.70;;;;;;;;;;5067406;28;20666;-75
2022/08/25 06:33:06;;;;;;;9.27;8.03;;;;;;;;;;5067575;28;20209;-75
2022/08/25 06:35:32;;;;;;;8.83;8.03;;;;;;;;;;5067163;28;20293;-75
2022/08/25 06:37:59;;;;;;;8.73;7.93;;;;;;;;;;5067099;28;20201;-75
2022/08/25 06:40:26;;;;;;;8.03;7.33;;;;;;;;;;5067732;28;20193;-75
2022/08/25 06:42:52;;;;;;;8.63;7.73;;;;;;;;;;5054928;28;20225;-76
2022/08/25 06:45:18;;;;;;;8.97;7.87;;;;;;;;;;5054504;28;20668;-74
2022/08/25 06:47:44;;;;;;;8.33;7.47;;;;;;;;;;5054453;28;20194;-75
2022/08/25 06:50:10;;;;;;;8.30;7.33;;;;;;;;;;5054382;28;20230;-75
2022/08/25 06:52:36;;;;;;;8.57;7.70;;;;;;;;;;5054857;28;20284;-75
2022/08/25 06:55:03;;;;;;;8.17;7.17;;;;;;;;;;5054170;28;20198;-78
2022/08/25 06:57:32;;;;;;;8.80;7.90;;;;;;;;;;5053168;28;20236;-75
2022/08/25 06:59:58;;;;;;;7.90;7.20;;;;;;;;;;5054063;28;20235;-75
2022/08/25 07:02:24;;;;;;;8.07;7.33;;;;;;;;;;5053965;28;20202;-75
2022/08/25 07:04:52;;;;;;;8.30;7.60;;;;;;;;;;5053889;28;20628;-75
2022/08/25 07:07:18;;;;;;;7.53;6.77;;;;;;;;;;5053928;28;20280;-75
2022/08/25 07:09:44;;;;;;;8.17;6.87;;;;;;;;;;5053640;28;20245;-75
2022/08/25 07:12:10;;;;;;;8.37;7.20;;;;;;;;;;5053592;28;20205;-75
2022/08/25 07:14:38;;;;;;;7.70;7.00;;;;;;;;;;5053870;28;20226;-75
2022/08/25 07:17:04;;;;;;;8.10;6.83;;;;;;;;;;5053837;28;20213;-75
2022/08/25 07:19:30;;;;;;;7.30;6.60;;;;;;;;;;5054034;28;20214;-75
2022/08/25 07:21:56;;;;;;;7.13;6.43;;;;;;;;;;5053763;28;20296;-75
2022/08/25 07:24:23;;;;;;;7.27;6.57;;;;;;;;;;5053447;28;20652;-75
2022/08/25 07:26:49;;;;;;;7.43;6.77;;;;;;;;;;5053228;28;20203;-75
2022/08/25 07:29:17;;;;;;;7.10;6.47;;;;;;;;;;5053452;28;20202;-76
2022/08/25 07:31:44;;;;;;;6.77;6.17;;;;;;;;;;5053572;28;20202;-75
2022/08/25 07:36:55;;;;;;;7.87;6.67;;;;;;;;;;5052836;28;20192;-75
2022/08/25 07:39:22;;;;;;;6.43;5.83;;;;;;;;;;5053281;28;20223;-75
2022/08/25 07:41:48;;;;;;;7.20;6.50;;;;;;;;;;5053204;28;20202;-75
2022/08/25 07:44:14;;;;;;;6.97;6.17;;;;;;;;;;5053147;28;20214;-75
2022/08/25 07:46:40;;;;;;;7.17;6.57;;;;;;;;;;5053154;28;20211;-75
2022/08/25 07:49:07;;;;;;;6.97;6.37;;;;;;;;;;5057772;28;20251;-73
2022/08/25 07:51:34;;;;;;;6.43;5.90;;;;;;;;;;5033233;28;20282;-73
2022/08/25 07:54:00;;;;;;;6.80;6.10;;;;;;;;;;5032122;28;20200;-72
2022/08/25 07:56:26;;;;;;;6.87;6.30;;;;;;;;;;5032864;28;20198;-72
2022/08/25 07:58:52;;;;;;;7.13;5.90;;;;;;;;;;5032617;28;20221;-72
2022/08/25 08:01:20;;;;;;;7.30;6.60;;;;;;;;;;5032610;28;20249;-71
2022/08/25 08:03:46;;;;;;;7.60;6.40;;;;;;;;;;5032992;28;20291;-72
2022/08/25 08:06:14;;;;;;;8.30;6.20;;;;;;;;;;5032537;28;20206;-72
2022/08/25 08:08:43;;;;;;;10.10;7.00;;;;;;;;;;5032399;28;20563;-71
2022/08/25 08:11:13;;;;;;;8.87;6.70;;;;;;;;;;5031299;28;20310;-72
2022/08/25 08:13:39;;;;;;;10.53;7.30;;;;;;;;;;5032861;28;20203;-72
2022/08/25 08:16:08;;;;;;;10.77;6.80;;;;;;;;;;5032582;28;20253;-73
2022/08/25 08:18:34;;;;;;;10.77;7.30;;;;;;;;;;5032640;28;20621;-72
2022/08/25 08:21:00;;;;;;;10.97;6.70;;;;;;;;;;5032192;28;20295;-71
2022/08/25 08:23:28;;;;;;;7.97;6.70;;;;;;;;;;5032782;28;20227;-72
2022/08/25 08:25:54;;;;;;;10.40;6.40;;;;;;;;;;5032544;28;20203;-72
2022/08/25 08:28:21;;;;;;;8.13;7.23;;;;;;;;;;5032595;28;20550;-72
2022/08/25 08:30:47;;;;;;;9.13;6.40;;;;;;;;;;5031647;28;20238;-72
2022/08/25 08:33:13;;;;;;;8.37;6.70;;;;;;;;;;5031837;28;20869;-72
2022/08/25 08:35:39;;;;;;;6.93;6.27;;;;;;;;;;5032528;28;20204;-72
2022/08/25 08:38:05;;;;;;;8.83;6.40;;;;;;;;;;5032314;28;20198;-72
2022/08/25 08:40:35;;;;;;;7.30;6.60;;;;;;;;;;5031942;28;20199;-72
2022/08/25 08:43:05;;;;;;;7.67;6.53;;;;;;;;;;5030812;28;20643;-74
2022/08/25 08:45:33;;;;;;;6.80;5.97;;;;;;;;;;5031820;28;20208;-70
2022/08/25 08:48:27;;;;;;;6.43;5.80;;;;;;;;;;5031867;28;20210;-69
2022/08/25 08:50:57;;;;;;;7.03;6.23;;;;;;;;;;4996833;28;20321;-70
2022/08/25 08:53:26;;;;;;;6.83;6.23;;;;;;;;;;5032424;28;20252;-70
2022/08/25 08:55:55;;;;;;;7.90;6.57;;;;;;;;;;5032002;28;20256;-76
2022/08/25 08:58:23;;;;;;;6.50;5.63;;;;;;;;;;5031704;28;20286;-74
2022/08/25 09:00:53;;;;;;;6.53;5.93;;;;;;;;;;5031790;28;20198;-74
2022/08/25 09:03:26;;;;;;;7.70;6.03;;;;;;;;;;5032369;28;20290;-76
2022/08/25 09:05:54;;;;;;;6.63;5.97;;;;;;;;;;5031712;28;20222;-74
2022/08/25 09:08:20;;;;;;;7.47;5.70;;;;;;;;;;5032189;28;20244;-73
2022/08/25 09:10:53;;;;;;;6.60;6.00;;;;;;;;;;5032180;28;20570;-73
2022/08/25 09:13:25;;;;;;;6.60;6.00;;;;;;;;;;5032235;28;20653;-75
2022/08/25 09:18:47;;;;;;;7.80;5.70;;;;;;;;;;5031991;28;20665;-73
2022/08/25 09:21:17;;;;;;;6.80;6.10;;;;;;;;;;5032062;28;20199;-73
2022/08/25 09:23:53;;;;;;;6.60;6.00;;;;;;;;;;5031984;28;20207;-73
2022/08/25 09:26:26;;;;;;;6.73;6.03;;;;;;;;;;5031857;28;20244;-73
2022/08/25 09:28:58;;;;;;;6.40;5.80;;;;;;;;;;5031993;28;20665;-73
2022/08/25 09:31:26;;;;;;;6.17;5.67;;;;;;;;;;5031805;28;20231;-73
2022/08/25 09:33:54;;;;;;;5.90;5.40;;;;;;;;;;5031434;28;20195;-74
2022/08/25 09:36:20;;;;;;;6.37;5.70;;;;;;;;;;5029929;28;20203;-73
2022/08/25 09:38:46;;;;;;;5.77;5.27;;;;;;;;;;5031965;28;20205;-73
2022/08/25 09:41:15;;;;;;;6.53;5.53;;;;;;;;;;5031724;28;20658;-75
2022/08/25 09:43:43;;;;;;;6.13;5.43;;;;;;;;;;5031862;28;20535;-74
2022/08/25 09:46:12;;;;;;;5.13;4.73;;;;;;;;;;5031804;28;20246;-74
2022/08/25 09:48:48;;;;;;;5.80;5.30;;;;;;;;;;5031480;28;20206;-73
2022/08/25 09:51:19;;;;;;;6.43;5.40;;;;;;;;;;5031866;28;20234;-75
2022/08/25 09:53:48;;;;;;;6.27;5.00;;;;;;;;;;5031850;28;20578;-73
2022/08/25 09:56:14;;;;;;;5.83;5.33;;;;;;;;;;5028093;28;20199;-74
2022/08/25 09:58:40;;;;;;;5.57;5.07;;;;;;;;;;5031434;28;20571;-75
2022/08/25 10:01:14;;;;;;;5.40;4.77;;;;;;;;;;5031277;28;20302;-73
2022/08/25 10:03:57;;;;;;;6.07;5.30;;;;;;;;;;5031428;28;20677;-73
2022/08/25 10:06:24;;;;;;;7.37;5.33;;;;;;;;;;5031459;28;20214;-72
2022/08/25 10:08:57;;;;;;;5.40;4.90;;;;;;;;;;5031303;28;20661;-72
2022/08/25 10:11:30;;;;;;;5.13;4.73;;;;;;;;;;5030944;28;20285;-72
2022/08/25 10:14:01;;;;;;;5.77;5.27;;;;;;;;;;5031344;28;20672;-73
2022/08/25 10:16:33;;;;;;;5.63;5.10;;;;;;;;;;5032141;28;20202;-80
2022/08/25 10:19:05;;;;;;;5.53;5.03;;;;;;;;;;5035073;28;20223;-76
2022/08/25 10:21:31;;;;;;;5.90;5.30;;;;;;;;;;5034992;28;20196;-78
2022/08/25 10:24:00;;;;;;;6.67;5.33;;;;;;;;;;5035042;28;20207;-77
2022/08/25 10:26:30;;;;;;;5.40;4.90;;;;;;;;;;5034549;28;20283;-77
2022/08/25 10:29:05;;;;;;;5.93;5.17;;;;;;;;;;5035017;28;20278;-76
2022/08/25 10:31:35;;;;;;;5.13;4.63;;;;;;;;;;5034456;28;20274;-77
2022/08/25 10:34:12;;;;;;;5.87;5.20;;;;;;;;;;5037219;28;20243;-77
2022/08/25 10:36:43;;;;;;;5.90;5.40;;;;;;;;;;5034562;28;20211;-77
2022/08/25 10:39:15;;;;;;;6.13;5.53;;;;;;;;;;5034382;28;20195;-76
2022/08/25 10:41:48;;;;;;;5.57;5.07;;;;;;;;;;5034707;28;20203;-77
2022/08/25 10:47:11;;;;;;;6.50;5.40;;;;;;;;;;5053901;28;20201;-78
2022/08/25 10:49:40;;;;;;;6.80;5.10;;;;;;;;;;5053818;28;20552;-78
2022/08/25 10:52:11;;;;;;;5.83;5.23;;;;;;;;;;5053717;28;20556;-76
2022/08/25 10:54:41;;;;;;;5.40;4.90;;;;;;;;;;5054295;28;20199;-76
2022/08/25 10:57:11;;;;;;;5.63;5.13;;;;;;;;;;5054124;28;20237;-76
2022/08/25 10:59:50;;;;;;;5.87;5.27;;;;;;;;;;5054147;28;20257;-77
2022/08/25 11:02:37;;;;;;;5.47;4.97;;;;;;;;;;5053375;28;20667;-77
2022/08/25 11:05:05;;;;;;;5.33;4.87;;;;;;;;;;5053843;28;20216;-77
2022/08/25 11:07:33;;;;;;;5.80;5.30;;;;;;;;;;5054087;28;20218;-77
2022/08/25 11:10:03;;;;;;;5.87;5.30;;;;;;;;;;5053648;28;20221;-75
2022/08/25 11:12:30;;;;;;;5.77;5.27;;;;;;;;;;5053684;28;20210;-77
2022/08/25 11:14:57;;;;;;;5.67;5.17;;;;;;;;;;5053889;28;20306;-77
2022/08/25 11:17:24;;;;;;;5.90;5.40;;;;;;;;;;5053904;28;20641;-78
2022/08/25 11:19:53;;;;;;;5.83;5.23;;;;;;;;;;5053733;28;20202;-78
2022/08/25 11:22:22;;;;;;;5.63;5.13;;;;;;;;;;5053419;28;20211;-77
2022/08/25 11:24:56;;;;;;;5.63;4.73;;;;;;;;;;5053362;28;20205;-78
2022/08/25 11:27:22;;;;;;;5.17;4.77;;;;;;;;;;5053625;28;20203;-78
2022/08/25 11:30:00;;;;;;;5.70;5.20;;;;;;;;;;5053426;28;20235;-77
2022/08/25 11:32:26;;;;;;;5.33;4.83;;;;;;;;;;5053748;28;20203;-77
2022/08/25 11:34:54;;;;;;;5.60;4.90;;;;;;;;;;5053709;28;20268;-77
2022/08/25 11:37:22;;;;;;;5.43;4.93;;;;;;;;;;5053153;28;20662;-77
2022/08/25 11:40:00;;;;;;;5.13;4.63;;;;;;;;;;5052689;28;20614;-77
2022/08/25 11:42:32;;;;;;;5.43;4.97;;;;;;;;;;5051150;28;20207;-82
2022/08/25 11:45:03;;;;;;;5.47;4.80;;;;;;;;;;5053490;28;20205;-82
2022/08/25 11:47:37;;;;;;;5.00;4.60;;;;;;;;;;5053334;28;20657;-83
2022/08/25 11:50:05;;;;;;;5.73;5.23;;;;;;;;;;5053364;28;20227;-84
2022/08/25 11:52:41;;;;;;;5.70;4.90;;;;;;;;;;5053283;28;20738;-76
2022/08/25 11:55:10;;;;;;;5.30;4.80;;;;;;;;;;5053107;28;20198;-71
2022/08/25 11:57:36;;;;;;;5.33;4.83;;;;;;;;;;5053246;28;20257;-71
2022/08/25 12:00:13;;;;;;;5.07;4.67;;;;;;;;;;5053129;28;20199;-70
2022/08/25 12:02:41;;;;;;;5.60;5.10;;;;;;;;;;5053136;28;20660;-70
2022/08/25 12:05:09;;;;;;;5.27;4.77;;;;;;;;;;5052953;28;20294;-71
2022/08/25 12:10:56;;;;;;;4.97;4.57;;;;;;;;;;5052970;28;20272;-73
2022/08/25 12:13:24;;;;;;;5.17;4.67;;;;;;;;;;5052688;28;20206;-73
2022/08/25 12:15:58;;;;;;;5.37;4.63;;;;;;;;;;5052612;28;20198;-74
2022/08/25 12:18:41;;;;;;;5.70;4.87;;;;;;;;;;5051072;28;20225;-71
2022/08/25 12:21:14;;;;;;;5.20;4.73;;;;;;;;;;5052563;28;20198;-71
2022/08/25 12:23:44;;;;;;;5.50;4.90;;;;;;;;;;5052708;28;20307;-71
2022/08/25 12:26:16;;;;;;;4.87;4.47;;;;;;;;;;5052093;28;20198;-71
2022/08/25 12:28:51;;;;;;;5.27;4.33;;;;;;;;;;5052851;28;20199;-71
2022/08/25 12:31:21;;;;;;;4.97;4.57;;;;;;;;;;5032870;28;20242;-71
2022/08/25 12:33:54;;;;;;;5.23;4.50;;;;;;;;;;5032883;28;20274;-70
2022/08/25 12:36:27;;;;;;;5.50;4.87;;;;;;;;;;5032566;28;20196;-71
2022/08/25 12:38:53;;;;;;;4.97;4.53;;;;;;;;;;5031414;28;20207;-71
2022/08/25 12:41:20;;;;;;;5.23;4.73;;;;;;;;;;5031851;28;20200;-71
2022/08/25 12:43:48;;;;;;;5.70;4.70;;;;;;;;;;5032382;28;20207;-71
2022/08/25 12:46:33;;;;;;;6.07;4.93;;;;;;;;;;5031521;28;20283;-71
2022/08/25 12:49:00;;;;;;;5.30;4.27;;;;;;;;;;5031403;28;20273;-70
2022/08/25 12:51:40;;;;;;;5.03;4.60;;;;;;;;;;5032293;28;20238;-69
2022/08/25 12:54:12;;;;;;;4.80;4.40;;;;;;;;;;5032235;28;20522;-69
2022/08/25 12:56:41;;;;;;;4.30;4.00;;;;;;;;;;5032054;28;20192;-69
2022/08/25 12:59:12;;;;;;;4.97;4.57;;;;;;;;;;5031342;28;20203;-69
2022/08/25 13:01:43;;;;;;;5.07;4.70;;;;;;;;;;5031267;28;20199;-70
2022/08/25 13:04:24;;;;;;;5.50;4.17;;;;;;;;;;5027784;28;20781;-70
2022/08/25 13:07:07;;;;;;;5.60;4.30;;;;;;;;;;5032003;28;20747;-69
2022/08/25 13:09:49;;;;;;;4.60;4.20;;;;;;;;;;5032404;28;20212;-69
2022/08/25 13:12:17;;;;;;;4.40;3.93;;;;;;;;;;5032528;28;20195;-69
2022/08/25 13:14:44;;;;;;;4.77;4.37;;;;;;;;;;5032284;28;20208;-69
2022/08/25 13:17:11;;;;;;;4.60;4.20;;;;;;;;;;5031120;28;20294;-70
2022/08/25 13:19:37;;;;;;;4.67;4.27;;;;;;;;;;5030976;28;20207;-70
2022/08/25 13:22:10;;;;;;;4.70;4.20;;;;;;;;;;5031872;28;20195;-71
2022/08/25 13:24:39;;;;;;;4.50;4.10;;;;;;;;;;5031560;28;20204;-70
2022/08/25 13:27:08;;;;;;;4.47;4.07;;;;;;;;;;5031666;28;20337;-70
2022/08/25 13:29:34;;;;;;;5.97;4.73;;;;;;;;;;5030942;28;20245;-71
2022/08/25 13:32:01;;;;;;;4.60;4.20;;;;;;;;;;5031566;28;20228;-70
2022/08/25 13:34:29;;;;;;;5.13;4.20;;;;;;;;;;5031062;28;20431;-75
2022/08/25 13:39:41;;;;;;;4.40;4.00;;;;;;;;;;5031540;28;20290;-71
2022/08/25 13:42:12;;;;;;;4.57;4.17;;;;;;;;;;5030691;28;20331;-72
2022/08/25 13:44:39;;;;;;;4.83;4.40;;;;;;;;;;5031416;28;20638;-72
2022/08/25 13:47:05;;;;;;;4.57;4.17;;;;;;;;;;5031719;28;20199;-72
2022/08/25 13:49:32;;;;;;;4.30;4.00;;;;;;;;;;5031054;28;20229;-72
2022/08/25 13:51:58;;;;;;;4.37;3.97;;;;;;;;;;5032704;28;20268;-72
2022/08/25 13:54:25;;;;;;;5.37;4.67;;;;;;;;;;5045991;28;20286;-73
2022/08/25 13:56:53;;;;;;;4.53;4.20;;;;;;;;;;5055346;28;20510;-73
2022/08/25 13:59:21;;;;;;;4.43;4.03;;;;;;;;;;5055199;28;20214;-73
2022/08/25 14:01:48;;;;;;;4.00;3.70;;;;;;;;;;5055435;28;20195;-71
2022/08/25 14:04:30;;;;;;;4.47;3.80;;;;;;;;;;5054153;28;20255;-72
2022/08/25 14:07:21;;;;;;;4.30;3.90;;;;;;;;;;5054917;28;20250;-72
2022/08/25 14:09:48;;;;;;;4.80;4.30;;;;;;;;;;5040205;28;20202;-72
2022/08/25 14:12:41;;;;;;;4.27;3.97;;;;;;;;;;5054906;28;20760;-71
2022/08/25 14:15:11;;;;;;;5.00;4.07;;;;;;;;;;5019010;28;20260;-72
2022/08/25 14:17:39;;;;;;;4.47;4.07;;;;;;;;;;5053431;28;20264;-73
2022/08/25 14:20:05;;;;;;;4.40;4.00;;;;;;;;;;5055011;28;20229;-72
2022/08/25 14:22:31;;;;;;;5.13;4.57;;;;;;;;;;5055030;28;20245;-76
2022/08/25 14:24:57;;;;;;;4.20;3.80;;;;;;;;;;5054544;28;20546;-75
2022/08/25 14:27:23;;;;;;;4.53;4.03;;;;;;;;;;5054269;28;20293;-75
2022/08/25 14:29:49;;;;;;;4.07;3.73;;;;;;;;;;5054589;28;20243;-70
2022/08/25 14:32:17;;;;;;;3.97;3.67;;;;;;;;;;5054662;28;20244;-70
2022/08/25 14:34:43;;;;;;;4.17;3.73;;;;;;;;;;5054922;28;20606;-71
2022/08/25 14:37:11;;;;;;;4.30;3.93;;;;;;;;;;5054878;28;20206;-74
2022/08/25 14:39:37;;;;;;;4.30;3.90;;;;;;;;;;5053384;28;20190;-74
2022/08/25 14:42:04;;;;;;;4.10;3.70;;;;;;;;;;5053691;28;20665;-73
2022/08/25 14:44:30;;;;;;;4.43;3.40;;;;;;;;;;5054599;28;20206;-74
2022/08/25 14:46:58;;;;;;;4.90;3.90;;;;;;;;;;5054749;28;20560;-74
2022/08/25 14:49:28;;;;;;;4.13;3.80;;;;;;;;;;5053406;28;20278;-74
2022/08/25 14:51:55;;;;;;;3.60;3.30;;;;;;;;;;5052382;28;20743;-74
2022/08/25 14:54:23;;;;;;;4.70;4.07;;;;;;;;;;5054780;28;20219;-74
2022/08/25 14:56:49;;;;;;;4.13;3.70;;;;;;;;;;5054916;28;20515;-74
2022/08/25 14:59:15;;;;;;;3.80;3.50;;;;;;;;;;5054759;28;20572;-74
2022/08/25 15:01:42;;;;;;;5.13;3.70;;;;;;;;;;5054788;28;20298;-74
2022/08/25 15:04:09;;;;;;;5.67;3.97;;;;;;;;;;5054178;28;20223;-73
2022/08/25 15:06:37;;;;;;;4.70;3.87;;;;;;;;;;5054620;28;20766;-73
2022/08/25 15:09:06;;;;;;;4.00;3.60;;;;;;;;;;5054589;28;20210;-73
2022/08/25 15:11:32;;;;;;;5.17;3.87;;;;;;;;;;5054411;28;20574;-74